createdAt,value
2023-01-29T00:00:53.627Z,97.30
2023-01-29T00:11:02.089Z,99.42
2023-01-29T00:21:10.250Z,99.17
2023-01-29T00:31:15.340Z,98.78
2023-01-29T00:41:39.359Z,97.66
2023-01-29T00:51:42.337Z,97.24
2023-01-29T01:02:04.221Z,97.74
2023-01-29T01:12:07.749Z,97.02
2023-01-29T01:22:12.279Z,96.58
2023-01-29T01:32:16.019Z,97.86
2023-01-29T01:42:20.839Z,98.47
2023-01-29T01:52:24.127Z,99.28
2023-01-29T02:02:46.623Z,100.00
2023-01-29T02:12:49.861Z,99.09
2023-01-29T02:23:34.128Z,98.99
2023-01-29T02:33:49.215Z,98.67
2023-01-29T02:43:59.257Z,98.36
2023-01-29T02:54:08.736Z,98.11
2023-01-29T03:04:15.842Z,97.47
2023-01-29T03:14:49.371Z,96.93
2023-01-29T03:25:14.340Z,96.95
2023-01-29T03:35:36.556Z,96.06
2023-01-29T03:45:50.099Z,95.63
2023-01-29T03:56:02.307Z,95.67
2023-01-29T04:06:12.874Z,95.83
2023-01-29T04:16:29.343Z,95.59
2023-01-29T04:27:02.062Z,95.69
2023-01-29T04:37:17.004Z,94.82
2023-01-29T04:47:25.703Z,95.27
2023-01-29T04:57:36.143Z,94.74
2023-01-29T05:07:40.553Z,94.55
2023-01-29T05:17:45.188Z,94.33
2023-01-29T05:28:05.331Z,94.21
2023-01-29T05:38:09.810Z,94.97
2023-01-29T05:48:12.864Z,94.89
2023-01-29T05:58:19.625Z,94.67
2023-01-29T06:08:22.669Z,94.48
2023-01-29T06:18:27.094Z,94.22
2023-01-29T06:28:30.281Z,93.48
2023-01-29T06:38:35.009Z,93.60
2023-01-29T06:48:38.198Z,94.01
2023-01-29T06:58:43.745Z,93.46
2023-01-29T07:08:46.916Z,93.19
2023-01-29T07:18:51.427Z,93.49
2023-01-29T07:28:54.661Z,93.84
2023-01-29T07:38:59.246Z,92.76
2023-01-29T07:49:02.539Z,93.09
2023-01-29T07:59:06.870Z,92.62
2023-01-29T08:09:10.040Z,92.90
2023-01-29T08:19:14.563Z,92.52
2023-01-29T08:29:17.658Z,92.38
2023-01-29T08:39:22.244Z,92.18
2023-01-29T08:49:25.491Z,91.55
2023-01-29T08:59:30.050Z,91.29
2023-01-29T09:09:33.030Z,91.31
2023-01-29T09:19:37.352Z,90.69
2023-01-29T09:29:40.704Z,89.96
2023-01-29T09:39:45.353Z,89.27
2023-01-29T09:49:51.747Z,88.60
2023-01-29T09:59:56.459Z,87.12
2023-01-29T10:10:26.132Z,86.93
2023-01-29T10:20:56.380Z,85.89
2023-01-29T10:31:03.913Z,85.25
2023-01-29T10:41:26.320Z,84.11
2023-01-29T10:51:55.650Z,83.06
2023-01-29T11:02:03.283Z,82.62
2023-01-29T11:12:13.979Z,81.58
2023-01-29T11:22:21.021Z,80.51
2023-01-29T11:32:29.811Z,80.60
2023-01-29T11:42:35.274Z,80.18
2023-01-29T11:52:42.460Z,80.45
2023-01-29T12:02:50.227Z,80.00
2023-01-29T12:12:53.571Z,78.76
2023-01-29T12:23:05.193Z,78.69
2023-01-29T12:33:16.966Z,78.54
2023-01-29T12:43:28.749Z,79.05
2023-01-29T12:53:36.547Z,79.27
2023-01-29T13:03:51.262Z,80.49
2023-01-29T13:13:59.173Z,81.49
2023-01-29T13:24:06.016Z,82.14
2023-01-29T13:34:15.752Z,81.68
2023-01-29T13:44:24.329Z,81.90
2023-01-29T13:54:29.075Z,82.25
2023-01-29T14:04:34.184Z,82.03
2023-01-29T14:15:21.133Z,82.87
2023-01-29T14:25:32.297Z,82.89
2023-01-29T14:35:36.029Z,82.93
2023-01-29T14:45:42.811Z,82.48
2023-01-29T14:55:49.860Z,82.54
2023-01-29T15:05:55.614Z,82.36
2023-01-29T15:16:07.307Z,82.27
2023-01-29T15:26:16.269Z,81.76
2023-01-29T15:36:22.137Z,82.30
2023-01-29T15:46:29.128Z,82.43
2023-01-29T15:56:39.657Z,82.31
2023-01-29T16:06:44.938Z,82.47
2023-01-29T16:16:49.029Z,82.83
2023-01-29T16:27:00.370Z,82.44
2023-01-29T16:37:07.183Z,82.57
2023-01-29T16:47:15.755Z,82.40
2023-01-29T16:57:22.795Z,82.08
2023-01-29T17:07:28.198Z,82.22
2023-01-29T17:17:33.386Z,82.77
2023-01-29T17:27:42.136Z,82.51
2023-01-29T17:37:45.807Z,81.99
2023-01-29T17:47:50.177Z,82.64
2023-01-29T17:57:53.126Z,82.95
2023-01-29T18:07:57.567Z,83.83
2023-01-29T18:18:00.683Z,86.49
2023-01-29T18:28:06.810Z,88.00
2023-01-29T18:38:10.073Z,89.74
2023-01-29T18:48:14.932Z,90.73
2023-01-29T18:58:28.307Z,91.10
2023-01-29T19:08:41.491Z,91.72
2023-01-29T19:18:44.816Z,92.03
2023-01-29T19:28:49.439Z,92.08
2023-01-29T19:38:52.695Z,92.33
2023-01-29T19:48:58.718Z,92.30
2023-01-29T19:59:02.242Z,92.48
2023-01-29T20:09:07.104Z,93.38
2023-01-29T20:19:14.637Z,94.25
2023-01-29T20:29:19.576Z,93.82
2023-01-29T20:39:22.950Z,94.26
2023-01-29T20:49:28.663Z,95.13
2023-01-29T20:59:31.983Z,95.37
2023-01-29T21:09:36.428Z,95.73
2023-01-29T21:19:39.516Z,96.64
2023-01-29T21:29:43.991Z,97.41
2023-01-29T21:39:47.308Z,97.83
2023-01-29T21:49:51.730Z,98.27
2023-01-29T21:59:55.209Z,98.53
2023-01-29T22:09:59.679Z,99.34
2023-01-29T22:20:03.081Z,99.43
2023-01-29T22:30:09.418Z,100.00
2023-01-29T22:40:13.690Z,100.00
2023-01-29T22:50:18.389Z,100.00
2023-01-29T23:00:22.641Z,100.00
2023-01-29T23:10:26.946Z,100.00
2023-01-29T23:20:30.205Z,100.00
2023-01-29T23:30:34.624Z,100.00
2023-01-29T23:40:37.761Z,100.00
2023-01-29T23:50:42.179Z,100.00
